sensor_id;sensor_type;location;lat;lon;timestamp;temperature;humidity
20246;DHT22;10281;54.406;18.556;2022-10-16T00:00:37;12.70;99.90
20246;DHT22;10281;54.406;18.556;2022-10-16T00:03:04;12.80;99.90
20246;DHT22;10281;54.406;18.556;2022-10-16T00:05:31;12.80;99.90
20246;DHT22;10281;54.406;18.556;2022-10-16T00:07:58;12.80;99.90
20246;DHT22;10281;54.406;18.556;2022-10-16T00:10:25;12.80;99.90
20246;DHT22;10281;54.406;18.556;2022-10-16T00:12:51;12.90;99.90
20246;DHT22;10281;54.406;18.556;2022-10-16T00:15:18;12.90;99.90
20246;DHT22;10281;54.406;18.556;2022-10-16T00:17:45;13.00;99.90
20246;DHT22;10281;54.406;18.556;2022-10-16T00:20:11;13.00;99.90
20246;DHT22;10281;54.406;18.556;2022-10-16T00:22:38;13.10;99.90
20246;DHT22;10281;54.406;18.556;2022-10-16T00:25:06;13.10;99.90
20246;DHT22;10281;54.406;18.556;2022-10-16T00:27:33;13.20;99.90
20246;DHT22;10281;54.406;18.556;2022-10-16T00:30:00;13.20;99.90
20246;DHT22;10281;54.406;18.556;2022-10-16T00:32:27;13.20;99.90
20246;DHT22;10281;54.406;18.556;2022-10-16T00:34:53;13.20;99.90
20246;DHT22;10281;54.406;18.556;2022-10-16T00:37:21;13.40;99.90
20246;DHT22;10281;54.406;18.556;2022-10-16T00:39:47;13.30;99.90
20246;DHT22;10281;54.406;18.556;2022-10-16T00:42:17;13.30;99.90
20246;DHT22;10281;54.406;18.556;2022-10-16T00:44:51;13.30;99.90
20246;DHT22;10281;54.406;18.556;2022-10-16T00:47:24;13.40;99.90
20246;DHT22;10281;54.406;18.556;2022-10-16T00:49:54;13.50;99.90
20246;DHT22;10281;54.406;18.556;2022-10-16T00:52:22;13.50;99.90
20246;DHT22;10281;54.406;18.556;2022-10-16T00:54:50;13.50;99.90
20246;DHT22;10281;54.406;18.556;2022-10-16T00:57:18;13.60;99.90
20246;DHT22;10281;54.406;18.556;2022-10-16T00:59:45;13.60;99.90
20246;DHT22;10281;54.406;18.556;2022-10-16T01:02:14;13.60;99.90
20246;DHT22;10281;54.406;18.556;2022-10-16T01:04:48;13.70;99.90
20246;DHT22;10281;54.406;18.556;2022-10-16T01:10:45;13.70;99.90
20246;DHT22;10281;54.406;18.556;2022-10-16T01:13:16;13.80;99.90
20246;DHT22;10281;54.406;18.556;2022-10-16T01:15:52;13.70;99.90
20246;DHT22;10281;54.406;18.556;2022-10-16T01:18:33;13.70;99.90
20246;DHT22;10281;54.406;18.556;2022-10-16T01:21:06;13.80;99.90
20246;DHT22;10281;54.406;18.556;2022-10-16T01:26:31;13.80;99.90
20246;DHT22;10281;54.406;18.556;2022-10-16T01:29:03;13.80;99.90
20246;DHT22;10281;54.406;18.556;2022-10-16T01:31:34;13.80;99.90
20246;DHT22;10281;54.406;18.556;2022-10-16T01:34:06;13.90;99.90
20246;DHT22;10281;54.406;18.556;2022-10-16T01:36:39;13.90;99.90
20246;DHT22;10281;54.406;18.556;2022-10-16T01:39:09;13.90;99.90
20246;DHT22;10281;54.406;18.556;2022-10-16T01:41:41;13.90;99.90
20246;DHT22;10281;54.406;18.556;2022-10-16T01:44:13;14.00;99.90
20246;DHT22;10281;54.406;18.556;2022-10-16T01:46:42;14.00;99.90
20246;DHT22;10281;54.406;18.556;2022-10-16T01:49:10;14.00;99.90
20246;DHT22;10281;54.406;18.556;2022-10-16T01:51:38;14.00;99.90
20246;DHT22;10281;54.406;18.556;2022-10-16T01:54:07;14.00;99.90
20246;DHT22;10281;54.406;18.556;2022-10-16T01:56:34;14.00;99.90
20246;DHT22;10281;54.406;18.556;2022-10-16T01:59:06;14.00;99.90
20246;DHT22;10281;54.406;18.556;2022-10-16T02:01:35;14.00;99.90
20246;DHT22;10281;54.406;18.556;2022-10-16T02:04:13;14.10;99.90
20246;DHT22;10281;54.406;18.556;2022-10-16T02:06:40;14.10;99.90
20246;DHT22;10281;54.406;18.556;2022-10-16T02:09:06;14.10;99.90
20246;DHT22;10281;54.406;18.556;2022-10-16T02:11:33;14.20;99.90
20246;DHT22;10281;54.406;18.556;2022-10-16T02:14:04;14.20;99.90
20246;DHT22;10281;54.406;18.556;2022-10-16T02:16:38;14.20;99.90
20246;DHT22;10281;54.406;18.556;2022-10-16T02:19:06;14.20;99.90
20246;DHT22;10281;54.406;18.556;2022-10-16T02:21:43;14.20;99.90
20246;DHT22;10281;54.406;18.556;2022-10-16T02:24:22;14.20;99.90
20246;DHT22;10281;54.406;18.556;2022-10-16T02:26:57;14.10;99.90
20246;DHT22;10281;54.406;18.556;2022-10-16T02:29:24;14.10;99.90
20246;DHT22;10281;54.406;18.556;2022-10-16T02:31:55;14.10;99.90
20246;DHT22;10281;54.406;18.556;2022-10-16T02:34:24;14.00;99.90
20246;DHT22;10281;54.406;18.556;2022-10-16T02:36:52;14.00;99.90
20246;DHT22;10281;54.406;18.556;2022-10-16T02:39:20;14.00;99.90
20246;DHT22;10281;54.406;18.556;2022-10-16T02:41:47;13.90;99.90
20246;DHT22;10281;54.406;18.556;2022-10-16T02:44:14;13.90;99.90
20246;DHT22;10281;54.406;18.556;2022-10-16T02:46:40;13.90;99.90
20246;DHT22;10281;54.406;18.556;2022-10-16T02:49:07;13.80;99.90
20246;DHT22;10281;54.406;18.556;2022-10-16T02:51:34;13.80;99.90
20246;DHT22;10281;54.406;18.556;2022-10-16T02:54:01;13.70;99.90
20246;DHT22;10281;54.406;18.556;2022-10-16T02:56:28;13.70;99.90
20246;DHT22;10281;54.406;18.556;2022-10-16T02:58:56;13.70;99.90
20246;DHT22;10281;54.406;18.556;2022-10-16T03:01:23;13.60;99.90
20246;DHT22;10281;54.406;18.556;2022-10-16T03:03:49;13.60;99.90
20246;DHT22;10281;54.406;18.556;2022-10-16T03:06:16;13.60;99.90
20246;DHT22;10281;54.406;18.556;2022-10-16T03:08:43;13.60;99.90
20246;DHT22;10281;54.406;18.556;2022-10-16T03:11:09;13.50;99.90
20246;DHT22;10281;54.406;18.556;2022-10-16T03:13:36;13.50;99.90
20246;DHT22;10281;54.406;18.556;2022-10-16T03:16:02;13.50;99.90
20246;DHT22;10281;54.406;18.556;2022-10-16T03:18:29;13.50;99.90
20246;DHT22;10281;54.406;18.556;2022-10-16T03:20:56;13.40;99.90
20246;DHT22;10281;54.406;18.556;2022-10-16T03:23:22;13.40;99.90
20246;DHT22;10281;54.406;18.556;2022-10-16T03:25:49;13.40;99.90
20246;DHT22;10281;54.406;18.556;2022-10-16T03:28:16;13.40;99.90
20246;DHT22;10281;54.406;18.556;2022-10-16T03:30:43;13.40;99.90
20246;DHT22;10281;54.406;18.556;2022-10-16T03:33:10;13.40;99.90
20246;DHT22;10281;54.406;18.556;2022-10-16T03:35:36;13.40;99.90
20246;DHT22;10281;54.406;18.556;2022-10-16T03:38:03;13.40;99.90
20246;DHT22;10281;54.406;18.556;2022-10-16T03:40:29;13.40;99.90
20246;DHT22;10281;54.406;18.556;2022-10-16T03:42:58;13.40;99.90
20246;DHT22;10281;54.406;18.556;2022-10-16T03:45:25;13.40;99.90
20246;DHT22;10281;54.406;18.556;2022-10-16T03:47:53;13.40;99.90
20246;DHT22;10281;54.406;18.556;2022-10-16T03:50:19;13.50;99.90
20246;DHT22;10281;54.406;18.556;2022-10-16T03:52:46;13.50;99.90
20246;DHT22;10281;54.406;18.556;2022-10-16T03:55:13;13.50;99.90
20246;DHT22;10281;54.406;18.556;2022-10-16T03:57:39;13.50;99.90
20246;DHT22;10281;54.406;18.556;2022-10-16T04:00:07;13.50;99.90
20246;DHT22;10281;54.406;18.556;2022-10-16T04:02:33;13.50;99.90
20246;DHT22;10281;54.406;18.556;2022-10-16T04:05:00;13.50;99.90
20246;DHT22;10281;54.406;18.556;2022-10-16T04:07:26;13.60;99.90
20246;DHT22;10281;54.406;18.556;2022-10-16T04:09:53;13.60;99.90
20246;DHT22;10281;54.406;18.556;2022-10-16T04:12:20;13.60;99.90
20246;DHT22;10281;54.406;18.556;2022-10-16T04:14:46;13.60;99.90
20246;DHT22;10281;54.406;18.556;2022-10-16T04:17:13;13.70;99.90
20246;DHT22;10281;54.406;18.556;2022-10-16T04:19:40;13.70;99.90
20246;DHT22;10281;54.406;18.556;2022-10-16T04:22:06;13.70;99.90
20246;DHT22;10281;54.406;18.556;2022-10-16T04:24:33;13.70;99.90
20246;DHT22;10281;54.406;18.556;2022-10-16T04:27:00;13.70;99.90
20246;DHT22;10281;54.406;18.556;2022-10-16T04:29:26;13.80;99.90
20246;DHT22;10281;54.406;18.556;2022-10-16T04:31:53;13.80;99.90
20246;DHT22;10281;54.406;18.556;2022-10-16T04:34:19;13.80;99.90
20246;DHT22;10281;54.406;18.556;2022-10-16T04:36:48;13.80;99.90
20246;DHT22;10281;54.406;18.556;2022-10-16T04:39:16;13.80;99.90
20246;DHT22;10281;54.406;18.556;2022-10-16T04:41:42;13.80;99.90
20246;DHT22;10281;54.406;18.556;2022-10-16T04:44:09;13.80;99.90
20246;DHT22;10281;54.406;18.556;2022-10-16T04:46:36;13.90;99.90
20246;DHT22;10281;54.406;18.556;2022-10-16T04:49:02;13.90;99.90
20246;DHT22;10281;54.406;18.556;2022-10-16T04:51:29;13.90;99.90
20246;DHT22;10281;54.406;18.556;2022-10-16T04:53:56;13.90;99.90
20246;DHT22;10281;54.406;18.556;2022-10-16T04:56:22;13.80;99.90
20246;DHT22;10281;54.406;18.556;2022-10-16T04:58:50;13.80;99.90
20246;DHT22;10281;54.406;18.556;2022-10-16T05:01:16;13.80;99.90
20246;DHT22;10281;54.406;18.556;2022-10-16T05:03:43;13.80;99.90
20246;DHT22;10281;54.406;18.556;2022-10-16T05:06:10;13.70;99.90
20246;DHT22;10281;54.406;18.556;2022-10-16T05:08:36;13.80;99.90
20246;DHT22;10281;54.406;18.556;2022-10-16T05:11:03;13.80;99.90
20246;DHT22;10281;54.406;18.556;2022-10-16T05:13:29;13.80;99.90
20246;DHT22;10281;54.406;18.556;2022-10-16T05:15:56;13.80;99.90
20246;DHT22;10281;54.406;18.556;2022-10-16T05:18:23;13.80;99.90
20246;DHT22;10281;54.406;18.556;2022-10-16T05:20:49;13.80;99.90
20246;DHT22;10281;54.406;18.556;2022-10-16T05:23:16;13.80;99.90
20246;DHT22;10281;54.406;18.556;2022-10-16T05:25:42;13.70;99.90
20246;DHT22;10281;54.406;18.556;2022-10-16T05:28:09;13.80;99.90
20246;DHT22;10281;54.406;18.556;2022-10-16T05:30:37;13.80;99.90
20246;DHT22;10281;54.406;18.556;2022-10-16T05:33:04;13.80;99.90
20246;DHT22;10281;54.406;18.556;2022-10-16T05:35:31;13.80;99.90
20246;DHT22;10281;54.406;18.556;2022-10-16T05:37:57;13.80;99.90
20246;DHT22;10281;54.406;18.556;2022-10-16T05:40:24;13.80;99.90
20246;DHT22;10281;54.406;18.556;2022-10-16T05:42:55;13.80;99.90
20246;DHT22;10281;54.406;18.556;2022-10-16T05:45:22;13.90;99.90
20246;DHT22;10281;54.406;18.556;2022-10-16T05:47:49;13.90;99.90
20246;DHT22;10281;54.406;18.556;2022-10-16T05:50:16;13.90;99.90
20246;DHT22;10281;54.406;18.556;2022-10-16T05:52:42;13.90;99.90
20246;DHT22;10281;54.406;18.556;2022-10-16T05:55:09;14.00;99.90
20246;DHT22;10281;54.406;18.556;2022-10-16T05:57:35;14.00;99.90
20246;DHT22;10281;54.406;18.556;2022-10-16T06:00:03;14.00;99.90
20246;DHT22;10281;54.406;18.556;2022-10-16T06:02:30;14.00;99.90
20246;DHT22;10281;54.406;18.556;2022-10-16T06:04:56;14.00;99.90
20246;DHT22;10281;54.406;18.556;2022-10-16T06:07:23;14.00;99.90
20246;DHT22;10281;54.406;18.556;2022-10-16T06:09:51;14.10;99.90
20246;DHT22;10281;54.406;18.556;2022-10-16T06:12:19;14.10;99.90
20246;DHT22;10281;54.406;18.556;2022-10-16T06:14:46;14.10;99.90
20246;DHT22;10281;54.406;18.556;2022-10-16T06:17:14;14.10;99.90
20246;DHT22;10281;54.406;18.556;2022-10-16T06:19:41;14.10;99.90
20246;DHT22;10281;54.406;18.556;2022-10-16T06:22:07;14.20;99.90
20246;DHT22;10281;54.406;18.556;2022-10-16T06:24:34;14.20;99.90
20246;DHT22;10281;54.406;18.556;2022-10-16T06:27:00;14.20;99.90
20246;DHT22;10281;54.406;18.556;2022-10-16T06:29:27;14.20;99.90
20246;DHT22;10281;54.406;18.556;2022-10-16T06:31:53;14.20;99.90
20246;DHT22;10281;54.406;18.556;2022-10-16T06:34:20;14.20;99.90
20246;DHT22;10281;54.406;18.556;2022-10-16T06:36:47;14.10;99.90
20246;DHT22;10281;54.406;18.556;2022-10-16T06:39:13;14.10;99.90
20246;DHT22;10281;54.406;18.556;2022-10-16T06:41:40;14.10;99.90
20246;DHT22;10281;54.406;18.556;2022-10-16T06:44:07;14.10;99.90
20246;DHT22;10281;54.406;18.556;2022-10-16T06:46:34;14.10;99.90
20246;DHT22;10281;54.406;18.556;2022-10-16T06:49:00;14.10;99.90
20246;DHT22;10281;54.406;18.556;2022-10-16T06:51:27;14.10;99.90
20246;DHT22;10281;54.406;18.556;2022-10-16T06:53:55;14.10;99.90
20246;DHT22;10281;54.406;18.556;2022-10-16T06:56:25;14.10;99.90
20246;DHT22;10281;54.406;18.556;2022-10-16T06:58:52;14.20;99.90
20246;DHT22;10281;54.406;18.556;2022-10-16T07:01:22;14.20;99.90
20246;DHT22;10281;54.406;18.556;2022-10-16T07:03:49;14.20;99.90
20246;DHT22;10281;54.406;18.556;2022-10-16T07:06:19;14.20;99.90
20246;DHT22;10281;54.406;18.556;2022-10-16T07:08:46;14.20;99.90
20246;DHT22;10281;54.406;18.556;2022-10-16T07:11:17;14.20;99.90
20246;DHT22;10281;54.406;18.556;2022-10-16T07:13:45;14.20;99.90
20246;DHT22;10281;54.406;18.556;2022-10-16T07:16:16;14.30;99.90
20246;DHT22;10281;54.406;18.556;2022-10-16T07:18:43;14.30;99.90
20246;DHT22;10281;54.406;18.556;2022-10-16T07:21:15;14.30;99.90
20246;DHT22;10281;54.406;18.556;2022-10-16T07:23:42;14.30;99.90
20246;DHT22;10281;54.406;18.556;2022-10-16T07:26:10;14.40;99.90
20246;DHT22;10281;54.406;18.556;2022-10-16T07:28:37;14.40;99.90
20246;DHT22;10281;54.406;18.556;2022-10-16T07:31:07;14.40;99.90
20246;DHT22;10281;54.406;18.556;2022-10-16T07:33:35;14.40;99.90
20246;DHT22;10281;54.406;18.556;2022-10-16T07:36:01;14.50;99.90
20246;DHT22;10281;54.406;18.556;2022-10-16T07:38:28;14.40;99.90
20246;DHT22;10281;54.406;18.556;2022-10-16T07:40:59;14.50;99.90
20246;DHT22;10281;54.406;18.556;2022-10-16T07:43:27;14.50;99.90
20246;DHT22;10281;54.406;18.556;2022-10-16T07:45:54;14.60;99.90
20246;DHT22;10281;54.406;18.556;2022-10-16T07:48:22;14.60;99.90
20246;DHT22;10281;54.406;18.556;2022-10-16T07:50:49;14.60;99.90
20246;DHT22;10281;54.406;18.556;2022-10-16T07:53:15;14.60;99.90
20246;DHT22;10281;54.406;18.556;2022-10-16T07:55:43;14.60;99.90
20246;DHT22;10281;54.406;18.556;2022-10-16T07:58:10;14.70;99.90
20246;DHT22;10281;54.406;18.556;2022-10-16T08:00:36;14.70;99.90
20246;DHT22;10281;54.406;18.556;2022-10-16T08:03:03;14.70;99.90
20246;DHT22;10281;54.406;18.556;2022-10-16T08:05:32;14.70;99.90
20246;DHT22;10281;54.406;18.556;2022-10-16T08:07:59;14.80;99.90
20246;DHT22;10281;54.406;18.556;2022-10-16T08:10:27;14.80;99.90
20246;DHT22;10281;54.406;18.556;2022-10-16T08:12:54;14.80;99.90
20246;DHT22;10281;54.406;18.556;2022-10-16T08:15:21;14.90;99.90
20246;DHT22;10281;54.406;18.556;2022-10-16T08:18:05;14.90;99.90
20246;DHT22;10281;54.406;18.556;2022-10-16T08:20:32;15.00;99.90
20246;DHT22;10281;54.406;18.556;2022-10-16T08:23:00;15.00;99.90
20246;DHT22;10281;54.406;18.556;2022-10-16T08:25:27;15.00;99.90
20246;DHT22;10281;54.406;18.556;2022-10-16T08:27:54;15.10;99.90
20246;DHT22;10281;54.406;18.556;2022-10-16T08:30:23;15.10;99.90
20246;DHT22;10281;54.406;18.556;2022-10-16T08:32:50;15.10;99.90
20246;DHT22;10281;54.406;18.556;2022-10-16T08:35:16;15.10;99.90
20246;DHT22;10281;54.406;18.556;2022-10-16T08:37:43;15.20;99.90
20246;DHT22;10281;54.406;18.556;2022-10-16T08:40:16;15.20;99.90
20246;DHT22;10281;54.406;18.556;2022-10-16T08:48:00;15.30;99.90
20246;DHT22;10281;54.406;18.556;2022-10-16T08:50:29;15.30;99.90
20246;DHT22;10281;54.406;18.556;2022-10-16T08:52:57;15.40;99.90
20246;DHT22;10281;54.406;18.556;2022-10-16T08:55:43;15.50;99.90
20246;DHT22;10281;54.406;18.556;2022-10-16T08:58:16;15.50;99.90
20246;DHT22;10281;54.406;18.556;2022-10-16T09:00:46;15.50;99.90
20246;DHT22;10281;54.406;18.556;2022-10-16T09:03:17;15.60;99.90
20246;DHT22;10281;54.406;18.556;2022-10-16T09:08:41;15.60;99.90
20246;DHT22;10281;54.406;18.556;2022-10-16T09:11:15;15.60;99.90
20246;DHT22;10281;54.406;18.556;2022-10-16T09:13:51;15.70;99.90
20246;DHT22;10281;54.406;18.556;2022-10-16T09:16:24;15.70;99.90
20246;DHT22;10281;54.406;18.556;2022-10-16T09:18:58;15.70;99.90
20246;DHT22;10281;54.406;18.556;2022-10-16T09:21:26;15.80;99.90
20246;DHT22;10281;54.406;18.556;2022-10-16T09:24:00;15.70;99.90
20246;DHT22;10281;54.406;18.556;2022-10-16T09:26:28;15.70;99.90
20246;DHT22;10281;54.406;18.556;2022-10-16T09:28:55;15.70;99.90
20246;DHT22;10281;54.406;18.556;2022-10-16T09:31:22;15.70;99.90
20246;DHT22;10281;54.406;18.556;2022-10-16T09:33:52;15.70;99.90
20246;DHT22;10281;54.406;18.556;2022-10-16T09:36:20;15.70;99.90
20246;DHT22;10281;54.406;18.556;2022-10-16T09:38:47;15.80;99.90
20246;DHT22;10281;54.406;18.556;2022-10-16T09:41:18;15.80;99.90
20246;DHT22;10281;54.406;18.556;2022-10-16T09:43:52;15.80;99.90
20246;DHT22;10281;54.406;18.556;2022-10-16T09:46:36;15.90;99.90
20246;DHT22;10281;54.406;18.556;2022-10-16T09:49:20;15.90;99.90
20246;DHT22;10281;54.406;18.556;2022-10-16T09:51:36;15.90;99.90
20246;DHT22;10281;54.406;18.556;2022-10-16T09:54:17;15.80;99.90
20246;DHT22;10281;54.406;18.556;2022-10-16T09:56:44;15.80;99.90
20246;DHT22;10281;54.406;18.556;2022-10-16T09:59:19;15.80;99.90
20246;DHT22;10281;54.406;18.556;2022-10-16T10:01:50;15.80;99.90
20246;DHT22;10281;54.406;18.556;2022-10-16T10:04:19;15.80;99.90
20246;DHT22;10281;54.406;18.556;2022-10-16T10:06:51;15.90;99.90
20246;DHT22;10281;54.406;18.556;2022-10-16T10:09:24;15.90;99.90
20246;DHT22;10281;54.406;18.556;2022-10-16T10:11:54;15.90;99.90
20246;DHT22;10281;54.406;18.556;2022-10-16T10:14:24;15.90;99.90
20246;DHT22;10281;54.406;18.556;2022-10-16T10:17:02;15.80;99.90
20246;DHT22;10281;54.406;18.556;2022-10-16T10:19:23;15.80;99.90
20246;DHT22;10281;54.406;18.556;2022-10-16T10:21:51;15.80;99.90
20246;DHT22;10281;54.406;18.556;2022-10-16T10:24:19;15.80;99.90
20246;DHT22;10281;54.406;18.556;2022-10-16T10:26:55;15.90;99.90
20246;DHT22;10281;54.406;18.556;2022-10-16T10:29:34;16.00;99.90
20246;DHT22;10281;54.406;18.556;2022-10-16T10:32:12;16.00;99.90
20246;DHT22;10281;54.406;18.556;2022-10-16T10:34:48;16.00;99.90
20246;DHT22;10281;54.406;18.556;2022-10-16T10:37:30;16.00;99.90
20246;DHT22;10281;54.406;18.556;2022-10-16T10:45:42;16.00;99.90
20246;DHT22;10281;54.406;18.556;2022-10-16T10:48:34;16.00;99.90
20246;DHT22;10281;54.406;18.556;2022-10-16T10:51:03;16.00;99.90
20246;DHT22;10281;54.406;18.556;2022-10-16T10:53:45;16.00;99.90
20246;DHT22;10281;54.406;18.556;2022-10-16T10:58:57;16.10;99.90
20246;DHT22;10281;54.406;18.556;2022-10-16T11:01:27;16.10;99.90
20246;DHT22;10281;54.406;18.556;2022-10-16T11:06:40;16.20;99.90
20246;DHT22;10281;54.406;18.556;2022-10-16T11:09:15;16.30;99.90
20246;DHT22;10281;54.406;18.556;2022-10-16T11:11:48;16.30;99.90
20246;DHT22;10281;54.406;18.556;2022-10-16T11:14:21;16.30;99.90
20246;DHT22;10281;54.406;18.556;2022-10-16T11:16:54;16.40;99.90
20246;DHT22;10281;54.406;18.556;2022-10-16T11:22:04;16.50;99.90
20246;DHT22;10281;54.406;18.556;2022-10-16T11:24:44;16.50;99.90
20246;DHT22;10281;54.406;18.556;2022-10-16T11:27:14;16.60;99.90
20246;DHT22;10281;54.406;18.556;2022-10-16T11:29:46;16.60;99.90
20246;DHT22;10281;54.406;18.556;2022-10-16T11:32:23;16.70;99.90
20246;DHT22;10281;54.406;18.556;2022-10-16T11:34:53;16.70;99.90
20246;DHT22;10281;54.406;18.556;2022-10-16T11:37:25;16.80;99.90
20246;DHT22;10281;54.406;18.556;2022-10-16T11:39:54;16.80;99.90
20246;DHT22;10281;54.406;18.556;2022-10-16T11:42:27;16.90;99.90
20246;DHT22;10281;54.406;18.556;2022-10-16T11:45:33;16.90;99.90
20246;DHT22;10281;54.406;18.556;2022-10-16T11:47:45;16.90;99.90
20246;DHT22;10281;54.406;18.556;2022-10-16T11:50:34;16.90;99.90
20246;DHT22;10281;54.406;18.556;2022-10-16T11:53:21;16.90;99.90
20246;DHT22;10281;54.406;18.556;2022-10-16T11:55:45;16.90;99.90
20246;DHT22;10281;54.406;18.556;2022-10-16T11:58:19;16.90;99.90
20246;DHT22;10281;54.406;18.556;2022-10-16T12:03:30;16.90;99.90
20246;DHT22;10281;54.406;18.556;2022-10-16T12:06:11;16.90;99.90
20246;DHT22;10281;54.406;18.556;2022-10-16T12:08:35;16.90;99.90
20246;DHT22;10281;54.406;18.556;2022-10-16T12:11:40;17.00;99.90
20246;DHT22;10281;54.406;18.556;2022-10-16T12:16:27;17.00;99.90
20246;DHT22;10281;54.406;18.556;2022-10-16T12:19:09;17.00;99.90
20246;DHT22;10281;54.406;18.556;2022-10-16T12:21:31;17.00;99.90
20246;DHT22;10281;54.406;18.556;2022-10-16T12:23:58;17.00;99.90
20246;DHT22;10281;54.406;18.556;2022-10-16T12:26:28;17.00;99.90
20246;DHT22;10281;54.406;18.556;2022-10-16T12:28:56;16.90;99.90
20246;DHT22;10281;54.406;18.556;2022-10-16T12:31:23;16.90;99.90
20246;DHT22;10281;54.406;18.556;2022-10-16T12:33:56;16.90;99.90
20246;DHT22;10281;54.406;18.556;2022-10-16T12:36:29;16.90;99.90
20246;DHT22;10281;54.406;18.556;2022-10-16T12:38:57;16.90;99.90
20246;DHT22;10281;54.406;18.556;2022-10-16T12:41:32;16.80;99.90
20246;DHT22;10281;54.406;18.556;2022-10-16T12:44:01;16.80;99.90
20246;DHT22;10281;54.406;18.556;2022-10-16T12:46:38;16.80;99.90
20246;DHT22;10281;54.406;18.556;2022-10-16T12:49:20;16.80;99.90
20246;DHT22;10281;54.406;18.556;2022-10-16T12:51:45;16.80;99.90
20246;DHT22;10281;54.406;18.556;2022-10-16T12:54:15;16.70;99.90
20246;DHT22;10281;54.406;18.556;2022-10-16T12:59:35;16.70;99.90
20246;DHT22;10281;54.406;18.556;2022-10-16T13:05:01;16.70;99.90
20246;DHT22;10281;54.406;18.556;2022-10-16T13:07:38;16.60;99.90
20246;DHT22;10281;54.406;18.556;2022-10-16T13:10:41;16.60;99.90
20246;DHT22;10281;54.406;18.556;2022-10-16T13:13:01;16.70;99.90
20246;DHT22;10281;54.406;18.556;2022-10-16T13:15:33;16.70;99.90
20246;DHT22;10281;54.406;18.556;2022-10-16T13:18:13;16.70;99.90
20246;DHT22;10281;54.406;18.556;2022-10-16T13:20:51;16.80;99.90
20246;DHT22;10281;54.406;18.556;2022-10-16T13:23:23;16.80;99.90
20246;DHT22;10281;54.406;18.556;2022-10-16T13:25:59;16.80;99.90
20246;DHT22;10281;54.406;18.556;2022-10-16T13:28:28;16.80;99.90
20246;DHT22;10281;54.406;18.556;2022-10-16T13:30:58;16.80;99.90
20246;DHT22;10281;54.406;18.556;2022-10-16T13:33:32;16.80;99.90
20246;DHT22;10281;54.406;18.556;2022-10-16T13:35:59;16.80;99.90
20246;DHT22;10281;54.406;18.556;2022-10-16T13:38:29;16.80;99.90
20246;DHT22;10281;54.406;18.556;2022-10-16T13:40:59;16.80;99.90
20246;DHT22;10281;54.406;18.556;2022-10-16T13:43:34;16.80;99.90
20246;DHT22;10281;54.406;18.556;2022-10-16T13:46:05;16.80;99.90
20246;DHT22;10281;54.406;18.556;2022-10-16T13:48:33;16.80;99.90
20246;DHT22;10281;54.406;18.556;2022-10-16T13:51:04;16.70;99.90
20246;DHT22;10281;54.406;18.556;2022-10-16T13:53:33;16.70;99.90
20246;DHT22;10281;54.406;18.556;2022-10-16T13:56:03;16.70;99.90
20246;DHT22;10281;54.406;18.556;2022-10-16T13:58:30;16.70;99.90
20246;DHT22;10281;54.406;18.556;2022-10-16T14:01:00;16.70;99.90
20246;DHT22;10281;54.406;18.556;2022-10-16T14:03:28;16.70;99.90
20246;DHT22;10281;54.406;18.556;2022-10-16T14:05:58;16.70;99.90
20246;DHT22;10281;54.406;18.556;2022-10-16T14:08:27;16.70;99.90
20246;DHT22;10281;54.406;18.556;2022-10-16T14:10:56;16.80;99.90
20246;DHT22;10281;54.406;18.556;2022-10-16T14:13:28;16.80;99.90
20246;DHT22;10281;54.406;18.556;2022-10-16T14:15:54;16.80;99.90
20246;DHT22;10281;54.406;18.556;2022-10-16T14:18:25;16.70;99.90
20246;DHT22;10281;54.406;18.556;2022-10-16T14:20:53;16.70;99.90
20246;DHT22;10281;54.406;18.556;2022-10-16T14:23:30;16.70;99.90
20246;DHT22;10281;54.406;18.556;2022-10-16T14:26:16;16.70;99.90
20246;DHT22;10281;54.406;18.556;2022-10-16T14:28:43;16.70;99.90
20246;DHT22;10281;54.406;18.556;2022-10-16T14:31:28;16.70;99.90
20246;DHT22;10281;54.406;18.556;2022-10-16T14:33:55;16.60;99.90
20246;DHT22;10281;54.406;18.556;2022-10-16T14:36:22;16.60;99.90
20246;DHT22;10281;54.406;18.556;2022-10-16T14:41:30;16.50;99.90
20246;DHT22;10281;54.406;18.556;2022-10-16T14:44:02;16.50;99.90
20246;DHT22;10281;54.406;18.556;2022-10-16T14:46:33;16.40;99.90
20246;DHT22;10281;54.406;18.556;2022-10-16T14:49:17;16.30;99.90
20246;DHT22;10281;54.406;18.556;2022-10-16T14:51:46;16.30;99.90
20246;DHT22;10281;54.406;18.556;2022-10-16T14:54:16;16.30;99.90
20246;DHT22;10281;54.406;18.556;2022-10-16T14:56:51;16.20;99.90
20246;DHT22;10281;54.406;18.556;2022-10-16T14:59:28;16.10;99.90
20246;DHT22;10281;54.406;18.556;2022-10-16T15:01:55;16.10;99.90
20246;DHT22;10281;54.406;18.556;2022-10-16T15:04:22;16.00;99.90
20246;DHT22;10281;54.406;18.556;2022-10-16T15:06:48;16.00;99.90
20246;DHT22;10281;54.406;18.556;2022-10-16T15:09:15;15.90;99.90
20246;DHT22;10281;54.406;18.556;2022-10-16T15:11:42;15.90;99.90
20246;DHT22;10281;54.406;18.556;2022-10-16T15:14:12;15.80;99.90
20246;DHT22;10281;54.406;18.556;2022-10-16T15:16:39;15.80;99.90
20246;DHT22;10281;54.406;18.556;2022-10-16T15:19:06;15.70;99.90
20246;DHT22;10281;54.406;18.556;2022-10-16T15:21:33;15.70;99.90
20246;DHT22;10281;54.406;18.556;2022-10-16T15:24:00;15.60;99.90
20246;DHT22;10281;54.406;18.556;2022-10-16T15:26:28;15.60;99.90
20246;DHT22;10281;54.406;18.556;2022-10-16T15:28:55;15.60;99.90
20246;DHT22;10281;54.406;18.556;2022-10-16T15:31:23;15.50;99.90
20246;DHT22;10281;54.406;18.556;2022-10-16T15:33:51;15.40;99.90
20246;DHT22;10281;54.406;18.556;2022-10-16T15:36:28;15.40;99.90
20246;DHT22;10281;54.406;18.556;2022-10-16T15:38:55;15.40;99.90
20246;DHT22;10281;54.406;18.556;2022-10-16T15:41:22;15.30;99.90
20246;DHT22;10281;54.406;18.556;2022-10-16T15:43:49;15.30;99.90
20246;DHT22;10281;54.406;18.556;2022-10-16T15:46:20;15.20;99.90
20246;DHT22;10281;54.406;18.556;2022-10-16T15:48:48;15.20;99.90
20246;DHT22;10281;54.406;18.556;2022-10-16T15:51:15;15.10;99.90
20246;DHT22;10281;54.406;18.556;2022-10-16T15:53:43;15.10;99.90
20246;DHT22;10281;54.406;18.556;2022-10-16T15:56:12;15.00;99.90
20246;DHT22;10281;54.406;18.556;2022-10-16T15:58:40;14.90;99.90
20246;DHT22;10281;54.406;18.556;2022-10-16T16:01:06;14.90;99.90
20246;DHT22;10281;54.406;18.556;2022-10-16T16:03:35;14.80;99.90
20246;DHT22;10281;54.406;18.556;2022-10-16T16:06:05;14.70;99.90
20246;DHT22;10281;54.406;18.556;2022-10-16T16:08:33;14.70;99.90
20246;DHT22;10281;54.406;18.556;2022-10-16T16:11:05;14.70;99.90